createdAt,value
2019-01-04T00:00:50.356Z,22.3
2019-01-04T00:02:50.327Z,21.5
2019-01-04T00:04:49.461Z,22.4
2019-01-04T00:06:49.585Z,26.1
2019-01-04T00:08:49.479Z,26.1
2019-01-04T00:10:50.353Z,24.3
2019-01-04T00:12:50.296Z,20.9
2019-01-04T00:14:50.180Z,23.4
2019-01-04T00:16:50.176Z,23.7
2019-01-04T00:18:50.101Z,23.7
2019-01-04T00:20:49.979Z,27.1
2019-01-04T00:22:49.820Z,24.9
2019-01-04T00:24:49.697Z,24.1
2019-01-04T00:26:49.876Z,24.1
2019-01-04T00:28:49.741Z,23.4
2019-01-04T00:30:49.586Z,26.5
2019-01-04T00:32:49.599Z,23.3
2019-01-04T00:34:49.726Z,23.2
2019-01-04T00:36:49.832Z,23.4
2019-01-04T00:38:49.671Z,23.4
2019-01-04T00:40:49.700Z,22.3
2019-01-04T00:42:49.623Z,23.3
2019-01-04T00:44:49.460Z,22.9
2019-01-04T00:46:49.507Z,22.9
2019-01-04T00:48:50.372Z,22.1
2019-01-04T00:50:50.225Z,25.3
2019-01-04T00:52:50.095Z,24.7
2019-01-04T00:54:49.989Z,25.8
2019-01-04T00:56:50.047Z,25.8
2019-01-04T00:58:49.907Z,27.4
2019-01-04T01:00:49.808Z,27.4
2019-01-04T01:02:49.724Z,29.2
2019-01-04T01:04:50.124Z,29.2
2019-01-04T01:06:50.124Z,24.3
2019-01-04T01:08:49.990Z,32.5
2019-01-04T01:10:49.827Z,26.9
2019-01-04T01:12:49.656Z,27.9
2019-01-04T01:14:49.573Z,28.4
2019-01-04T01:16:49.701Z,28.4
2019-01-04T01:18:49.509Z,28.2
2019-01-04T01:20:50.440Z,28.2
2019-01-04T01:22:50.293Z,28.4
2019-01-04T01:24:50.275Z,29.3
2019-01-04T01:26:49.475Z,29.3
2019-01-04T01:28:50.294Z,30.5
2019-01-04T01:30:50.199Z,26.4
2019-01-04T01:32:50.052Z,26.4
2019-01-04T01:34:50.341Z,27.0
2019-01-04T01:36:49.507Z,27.0
2019-01-04T01:38:50.396Z,29.2
2019-01-04T01:40:50.311Z,28.1
2019-01-04T01:42:50.204Z,26.3
2019-01-04T01:44:50.110Z,29.8
2019-01-04T01:46:50.162Z,29.8
2019-01-04T01:48:50.089Z,24.9
2019-01-04T01:50:49.988Z,28.3
2019-01-04T01:52:49.902Z,27.8
2019-01-04T01:54:49.785Z,25.0
2019-01-04T01:56:49.777Z,25.0
2019-01-04T01:58:49.665Z,24.2
2019-01-04T02:00:49.504Z,27.5
2019-01-04T02:02:49.484Z,30.9
2019-01-04T02:04:49.681Z,30.9
2019-01-04T02:06:49.918Z,25.3
2019-01-04T02:08:49.826Z,27.7
2019-01-04T02:10:49.706Z,28.0
2019-01-04T02:12:49.636Z,28.0
2019-01-04T02:14:49.475Z,32.4
2019-01-04T02:16:49.609Z,29.2
2019-01-04T02:18:49.615Z,31.4
2019-01-04T02:20:49.567Z,29.8
2019-01-04T02:22:49.570Z,29.8
2019-01-04T02:24:49.535Z,30.6
2019-01-04T02:26:49.780Z,25.9
2019-01-04T02:28:49.932Z,29.3
2019-01-04T02:30:49.776Z,30.4
2019-01-04T02:32:49.614Z,30.4
2019-01-04T02:34:49.888Z,29.1
2019-01-04T02:36:49.954Z,25.8
2019-01-04T02:38:49.883Z,30.5
2019-01-04T02:40:49.754Z,26.1
2019-01-04T02:42:49.686Z,29.4
2019-01-04T02:44:49.617Z,29.4
2019-01-04T02:46:49.697Z,26.9
2019-01-04T02:48:49.619Z,27.4
2019-01-04T02:50:49.537Z,27.4
2019-01-04T02:52:49.485Z,27.1
2019-01-04T02:54:50.328Z,28.8
2019-01-04T02:56:49.507Z,27.9
2019-01-04T02:58:50.427Z,29.2
2019-01-04T03:00:50.271Z,33.0
2019-01-04T03:02:50.182Z,33.0
2019-01-04T03:04:50.320Z,28.4
2019-01-04T03:06:50.315Z,27.5
2019-01-04T03:08:50.197Z,31.1
2019-01-04T03:10:50.077Z,31.1
2019-01-04T03:12:49.921Z,26.3
2019-01-04T03:14:49.770Z,26.5
2019-01-04T03:16:49.840Z,24.1
2019-01-04T03:18:49.665Z,22.2
2019-01-04T03:20:49.708Z,22.2
2019-01-04T03:22:49.637Z,21.9
2019-01-04T03:24:49.558Z,24.6
2019-01-04T03:26:49.742Z,24.6
2019-01-04T03:28:49.601Z,23.2
2019-01-04T03:30:49.571Z,23.2
2019-01-04T03:32:50.394Z,23.6
2019-01-04T03:34:49.717Z,22.3
2019-01-04T03:36:49.767Z,23.5
2019-01-04T03:38:49.700Z,23.5
2019-01-04T03:40:49.589Z,20.9
2019-01-04T03:42:49.443Z,21.1
2019-01-04T03:44:50.312Z,22.4
2019-01-04T03:46:50.318Z,22.4
2019-01-04T03:48:50.193Z,21.4
2019-01-04T03:50:50.112Z,21.4
2019-01-04T03:52:49.968Z,21.3
2019-01-04T03:54:49.778Z,21.1
2019-01-04T03:56:49.891Z,20.0
2019-01-04T03:58:49.730Z,20.0
2019-01-04T04:00:49.630Z,21.0
2019-01-04T04:02:49.621Z,20.4
2019-01-04T04:04:49.786Z,21.2
2019-01-04T04:06:49.982Z,21.2
2019-01-04T04:08:49.861Z,20.4
2019-01-04T04:10:49.798Z,22.1
2019-01-04T04:12:49.616Z,24.0
2019-01-04T04:14:49.484Z,20.7
2019-01-04T04:16:49.464Z,20.7
2019-01-04T04:18:50.280Z,22.9
2019-01-04T04:20:50.205Z,21.5
2019-01-04T04:22:50.090Z,21.1
2019-01-04T04:24:49.917Z,23.8
2019-01-04T04:26:49.916Z,19.5
2019-01-04T04:28:49.793Z,19.5
2019-01-04T04:30:49.627Z,22.3
2019-01-04T04:32:49.595Z,22.3
2019-01-04T04:34:49.998Z,18.4
2019-01-04T04:36:50.142Z,18.4
2019-01-04T04:38:50.087Z,22.9
2019-01-04T04:40:49.987Z,22.9
2019-01-04T04:42:49.970Z,20.2
2019-01-04T04:44:49.825Z,22.7
2019-01-04T04:46:49.943Z,24.0
2019-01-04T04:48:49.811Z,24.0
2019-01-04T04:50:49.668Z,21.4
2019-01-04T04:52:49.594Z,21.3
2019-01-04T04:54:49.482Z,20.0
2019-01-04T04:56:49.689Z,20.6
2019-01-04T04:58:49.610Z,20.6
2019-01-04T05:00:49.469Z,21.3
2019-01-04T05:02:50.321Z,25.1
2019-01-04T05:04:49.564Z,25.0
2019-01-04T05:06:49.782Z,21.0
2019-01-04T05:08:49.766Z,21.0
2019-01-04T05:10:49.582Z,21.3
2019-01-04T05:12:49.476Z,20.6
2019-01-04T05:14:50.379Z,20.6
2019-01-04T05:16:49.483Z,22.3
2019-01-04T05:18:50.393Z,23.0
2019-01-04T05:20:50.314Z,21.9
2019-01-04T05:22:50.292Z,21.2
2019-01-04T05:24:50.164Z,22.3
2019-01-04T05:26:49.958Z,22.3
2019-01-04T05:28:49.838Z,20.2
2019-01-04T05:30:49.742Z,24.1
2019-01-04T05:32:49.614Z,21.0
2019-01-04T05:34:49.938Z,21.0
2019-01-04T05:36:49.976Z,22.0
2019-01-04T05:38:49.895Z,22.3
2019-01-04T05:40:49.757Z,24.0
2019-01-04T05:42:49.726Z,24.0
2019-01-04T05:44:49.646Z,22.9
2019-01-04T05:46:49.804Z,23.3
2019-01-04T05:48:49.642Z,24.0
2019-01-04T05:50:49.567Z,22.8
2019-01-04T05:52:49.550Z,24.7
2019-01-04T05:54:50.395Z,24.7
2019-01-04T05:56:50.435Z,23.2
2019-01-04T05:58:50.232Z,24.5
2019-01-04T06:00:50.090Z,22.9
2019-01-04T06:02:49.980Z,25.7
2019-01-04T06:04:50.312Z,25.7
2019-01-04T06:06:50.431Z,25.3
2019-01-04T06:08:50.246Z,26.5
2019-01-04T06:10:50.098Z,27.6
2019-01-04T06:12:49.938Z,28.9
2019-01-04T06:14:49.852Z,28.9
2019-01-04T06:16:49.874Z,27.5
2019-01-04T06:18:49.772Z,27.4
2019-01-04T06:20:49.622Z,28.4
2019-01-04T06:22:49.446Z,24.0
2019-01-04T06:24:50.349Z,24.0
2019-01-04T06:26:49.437Z,27.8
2019-01-04T06:28:50.301Z,25.3
2019-01-04T06:30:50.269Z,25.1
2019-01-04T06:32:50.079Z,24.3
2019-01-04T06:34:50.255Z,24.3
2019-01-04T06:36:49.940Z,25.8
2019-01-04T06:38:49.780Z,24.3
2019-01-04T06:40:49.687Z,25.8
2019-01-04T06:42:49.667Z,25.4
2019-01-04T06:44:49.526Z,25.4
2019-01-04T06:46:49.616Z,25.4
2019-01-04T06:48:49.515Z,23.2
2019-01-04T06:50:50.438Z,23.2
2019-01-04T06:52:50.355Z,24.1
2019-01-04T06:54:50.209Z,24.1
2019-01-04T06:56:50.313Z,24.4
2019-01-04T06:58:50.215Z,23.4
2019-01-04T07:00:50.086Z,27.1
2019-01-04T07:02:50.018Z,27.1
2019-01-04T07:04:50.155Z,26.2
2019-01-04T07:06:50.207Z,27.2
2019-01-04T07:08:50.190Z,25.6
2019-01-04T07:10:50.074Z,28.4
2019-01-04T07:12:49.942Z,28.4
2019-01-04T07:14:49.774Z,24.2
2019-01-04T07:16:49.907Z,25.4
2019-01-04T07:18:49.736Z,25.4
2019-01-04T07:20:49.627Z,24.8
2019-01-04T07:22:49.541Z,26.0
2019-01-04T07:24:50.427Z,23.6
2019-01-04T07:26:49.584Z,24.3
2019-01-04T07:28:49.453Z,24.3
2019-01-04T07:30:50.349Z,24.1
2019-01-04T07:32:50.145Z,27.5
2019-01-04T07:34:50.209Z,24.6
2019-01-04T07:36:50.333Z,24.7
2019-01-04T07:38:50.203Z,24.7
2019-01-04T07:40:50.144Z,24.1
2019-01-04T07:42:49.977Z,25.1
2019-01-04T07:44:49.759Z,22.7
2019-01-04T07:46:49.749Z,25.6
2019-01-04T07:48:49.927Z,25.6
2019-01-04T07:50:49.803Z,23.2
2019-01-04T07:52:49.677Z,23.7
2019-01-04T07:54:49.509Z,25.8
2019-01-04T07:56:49.720Z,25.8
2019-01-04T07:58:49.563Z,23.5
2019-01-04T08:00:50.385Z,23.5
2019-01-04T08:02:50.279Z,23.2
2019-01-04T08:04:49.531Z,23.3
2019-01-04T08:06:49.493Z,23.3
2019-01-04T08:08:49.428Z,24.6
2019-01-04T08:10:50.233Z,26.4
2019-01-04T08:12:50.084Z,24.2
2019-01-04T08:14:49.984Z,24.9
2019-01-04T08:16:50.077Z,25.3
2019-01-04T08:18:49.886Z,25.3
2019-01-04T08:20:49.742Z,26.6
2019-01-04T08:22:49.611Z,27.0
2019-01-04T08:24:49.477Z,28.0
2019-01-04T08:26:49.606Z,24.8
2019-01-04T08:28:50.420Z,24.8
2019-01-04T08:30:50.325Z,26.9
2019-01-04T08:32:50.201Z,23.7
2019-01-04T08:34:49.492Z,24.6
2019-01-04T08:36:49.681Z,26.9
2019-01-04T08:38:49.512Z,26.9
2019-01-04T08:40:50.422Z,26.1
2019-01-04T08:42:50.193Z,24.3
2019-01-04T08:44:50.042Z,24.3
2019-01-04T08:46:50.179Z,26.0
2019-01-04T08:48:49.973Z,26.0
2019-01-04T08:50:49.782Z,25.9
2019-01-04T08:52:49.762Z,25.1
2019-01-04T08:54:49.603Z,24.7
2019-01-04T08:56:49.654Z,27.3
2019-01-04T08:58:49.520Z,27.3
2019-01-04T09:00:50.294Z,25.2
2019-01-04T09:02:50.095Z,28.9
2019-01-04T09:04:50.223Z,25.3
2019-01-04T09:06:50.332Z,25.3
2019-01-04T09:08:50.234Z,25.6
2019-01-04T09:10:50.071Z,23.4
2019-01-04T09:12:50.090Z,27.9
2019-01-04T09:14:50.127Z,25.9
2019-01-04T09:16:50.304Z,25.9
2019-01-04T09:18:50.275Z,24.7
2019-01-04T09:20:50.386Z,23.2
2019-01-04T09:22:50.401Z,26.8
2019-01-04T09:24:50.393Z,23.4
2019-01-04T09:26:49.584Z,23.4
2019-01-04T09:28:49.645Z,24.3
2019-01-04T09:30:49.733Z,24.9
2019-01-04T09:32:49.838Z,22.6
2019-01-04T09:34:50.063Z,22.8
2019-01-04T09:36:50.289Z,22.8
2019-01-04T09:38:50.247Z,22.1
2019-01-04T09:40:50.286Z,22.7
2019-01-04T09:42:50.227Z,24.0
2019-01-04T09:44:50.170Z,24.0
2019-01-04T09:46:49.561Z,22.2
2019-01-04T09:48:49.633Z,21.8
2019-01-04T09:50:49.672Z,23.7
2019-01-04T09:52:49.682Z,22.7
2019-01-04T09:54:49.627Z,22.7
2019-01-04T09:56:49.751Z,22.5
2019-01-04T09:58:49.819Z,20.4
2019-01-04T10:00:49.844Z,22.5
2019-01-04T10:02:49.883Z,22.5
2019-01-04T10:04:50.123Z,19.6
2019-01-04T10:06:50.278Z,21.4
2019-01-04T10:08:50.300Z,20.5
2019-01-04T10:10:50.223Z,23.2
2019-01-04T10:12:50.283Z,19.2
2019-01-04T10:14:50.284Z,19.2
2019-01-04T10:16:49.627Z,19.2
2019-01-04T10:18:49.625Z,19.9
2019-01-04T10:20:49.682Z,19.9
2019-01-04T10:22:49.655Z,21.1
2019-01-04T10:24:49.695Z,21.1
2019-01-04T10:26:50.004Z,17.8
2019-01-04T10:28:50.021Z,19.6
2019-01-04T10:30:50.112Z,21.8
2019-01-04T10:32:50.095Z,19.1
2019-01-04T10:34:49.556Z,19.1
2019-01-04T10:36:49.752Z,22.6
2019-01-04T10:38:49.810Z,19.3
2019-01-04T10:40:49.829Z,16.8
2019-01-04T10:42:49.930Z,16.8
2019-01-04T10:44:49.939Z,19.4
2019-01-04T10:46:50.074Z,17.4
2019-01-04T10:48:50.078Z,18.4
2019-01-04T10:50:50.142Z,20.1
2019-01-04T10:52:50.114Z,20.1
2019-01-04T10:54:50.059Z,17.7
2019-01-04T10:56:50.248Z,16.1
2019-01-04T10:58:50.307Z,17.4
2019-01-04T11:00:50.305Z,16.3
2019-01-04T11:02:49.506Z,16.3
2019-01-04T11:04:49.921Z,14.0
2019-01-04T11:06:50.100Z,18.7
2019-01-04T11:08:50.128Z,14.9
2019-01-04T11:10:50.146Z,14.9
2019-01-04T11:12:50.229Z,14.2
2019-01-04T11:14:50.211Z,14.9
2019-01-04T11:16:49.451Z,12.7
2019-01-04T11:18:49.496Z,16.1
2019-01-04T11:20:49.540Z,17.8
2019-01-04T11:22:49.615Z,17.8
2019-01-04T11:24:49.826Z,13.0
2019-01-04T11:26:50.067Z,13.0
2019-01-04T11:28:50.184Z,14.8
2019-01-04T11:30:50.305Z,13.1
2019-01-04T11:32:50.417Z,13.1
2019-01-04T11:34:49.732Z,15.4
2019-01-04T11:36:49.953Z,16.0
2019-01-04T11:38:49.960Z,14.6
2019-01-04T11:40:50.018Z,14.6
2019-01-04T11:42:50.056Z,14.6
2019-01-04T11:44:50.053Z,14.9
2019-01-04T11:46:50.315Z,15.7
2019-01-04T11:48:50.285Z,16.7
2019-01-04T11:50:50.355Z,16.7
2019-01-04T11:52:50.348Z,16.0
2019-01-04T11:54:50.308Z,14.0
2019-01-04T11:56:49.554Z,18.0
2019-01-04T11:58:49.709Z,18.0
2019-01-04T12:00:49.773Z,15.5
2019-01-04T12:02:49.784Z,19.4
2019-01-04T12:04:50.125Z,16.2
2019-01-04T12:06:50.364Z,16.2
2019-01-04T12:08:49.467Z,14.7
2019-01-04T12:10:49.564Z,14.7
2019-01-04T12:12:49.591Z,19.5
2019-01-04T12:14:49.653Z,17.2
2019-01-04T12:16:49.880Z,17.2
2019-01-04T12:18:49.889Z,16.9
2019-01-04T12:20:49.880Z,16.9
2019-01-04T12:22:49.946Z,14.4
2019-01-04T12:24:50.069Z,14.4
2019-01-04T12:26:50.268Z,17.9
2019-01-04T12:28:50.250Z,18.1
2019-01-04T12:30:50.261Z,18.1
2019-01-04T12:32:50.431Z,15.1
2019-01-04T12:34:50.039Z,18.0
2019-01-04T12:36:50.245Z,19.5
2019-01-04T12:38:50.345Z,19.5
2019-01-04T12:40:50.368Z,18.7
2019-01-04T12:42:49.435Z,17.6
2019-01-04T12:44:49.583Z,16.9
2019-01-04T12:46:49.902Z,17.7
2019-01-04T12:48:49.917Z,17.7
2019-01-04T12:50:49.928Z,17.2
2019-01-04T12:52:51.182Z,19.8
2019-01-04T12:54:50.254Z,18.7
2019-01-04T12:56:49.514Z,18.7
2019-01-04T12:58:49.579Z,17.9
2019-01-04T13:00:49.613Z,16.3
2019-01-04T13:02:49.735Z,21.2
2019-01-04T13:04:50.008Z,21.2
2019-01-04T13:06:50.221Z,16.9
2019-01-04T13:08:50.335Z,18.6
2019-01-04T13:10:50.345Z,16.4
2019-01-04T13:12:50.318Z,16.4
2019-01-04T13:14:50.319Z,20.2
2019-01-04T13:16:49.495Z,15.7
2019-01-04T13:18:49.705Z,18.3
2019-01-04T13:20:49.739Z,19.1
2019-01-04T13:22:49.801Z,19.1
2019-01-04T13:24:49.824Z,19.5
2019-01-04T13:26:50.021Z,20.4
2019-01-04T13:28:50.190Z,21.3
2019-01-04T13:30:50.162Z,19.1
2019-01-04T13:32:50.178Z,18.6
2019-01-04T13:34:49.541Z,18.6
2019-01-04T13:36:49.825Z,19.3
2019-01-04T13:38:49.862Z,24.0
2019-01-04T13:40:49.798Z,24.4
2019-01-04T13:42:49.778Z,17.8
2019-01-04T13:44:49.758Z,17.8
2019-01-04T13:46:49.965Z,24.1
2019-01-04T13:48:50.063Z,21.9
2019-01-04T13:50:50.017Z,24.6
2019-01-04T13:52:50.103Z,24.6
2019-01-04T13:54:50.102Z,21.9
2019-01-04T13:56:50.254Z,18.7
2019-01-04T13:58:50.227Z,21.3
2019-01-04T14:00:50.206Z,19.9
2019-01-04T14:02:50.199Z,19.9
2019-01-04T14:04:49.624Z,19.0
2019-01-04T14:06:49.992Z,20.7
2019-01-04T14:08:49.984Z,21.1
2019-01-04T14:10:50.065Z,21.1
2019-01-04T14:12:50.122Z,21.3
2019-01-04T14:14:50.146Z,21.3
2019-01-04T14:16:50.365Z,20.3
2019-01-04T14:18:49.459Z,19.2
2019-01-04T14:20:49.470Z,19.2
2019-01-04T14:22:49.482Z,19.1
2019-01-04T14:24:49.497Z,19.1
2019-01-04T14:26:49.698Z,19.9
2019-01-04T14:28:49.721Z,20.6
2019-01-04T14:30:49.696Z,22.0
2019-01-04T14:32:49.714Z,21.0
2019-01-04T14:34:50.114Z,21.0
2019-01-04T14:36:50.302Z,19.6
2019-01-04T14:38:50.338Z,21.6
2019-01-04T14:40:50.403Z,22.3
2019-01-04T14:42:49.459Z,22.3
2019-01-04T14:44:49.533Z,22.2
2019-01-04T14:46:49.888Z,24.8
2019-01-04T14:48:49.868Z,21.6
2019-01-04T14:50:49.872Z,22.6
2019-01-04T14:52:49.951Z,22.6
2019-01-04T14:54:49.990Z,22.7
2019-01-04T14:56:50.233Z,21.9
2019-01-04T14:58:50.200Z,20.8
2019-01-04T15:00:50.192Z,21.2
2019-01-04T15:02:50.324Z,21.2
2019-01-04T15:04:49.721Z,22.5
2019-01-04T15:06:49.947Z,21.4
2019-01-04T15:08:49.956Z,22.8
2019-01-04T15:10:49.971Z,22.8
2019-01-04T15:12:49.996Z,23.2
2019-01-04T15:14:50.012Z,21.1
2019-01-04T15:16:50.207Z,23.6
2019-01-04T15:18:50.246Z,20.6
2019-01-04T15:20:50.236Z,20.6
2019-01-04T15:22:49.454Z,23.1
2019-01-04T15:24:49.473Z,22.6
2019-01-04T15:26:49.757Z,22.0
2019-01-04T15:28:49.768Z,25.5
2019-01-04T15:30:49.757Z,25.5
2019-01-04T15:32:49.739Z,23.1
2019-01-04T15:34:50.072Z,23.3
2019-01-04T15:36:50.218Z,22.9
2019-01-04T15:38:50.206Z,23.2
2019-01-04T15:40:50.241Z,23.2
2019-01-04T15:42:50.321Z,23.5
2019-01-04T15:44:50.295Z,22.8
2019-01-04T15:46:49.526Z,20.9
2019-01-04T15:48:49.560Z,20.7
2019-01-04T15:50:49.635Z,20.7
2019-01-04T15:52:49.668Z,20.7
2019-01-04T15:54:49.710Z,22.6
2019-01-04T15:56:49.822Z,22.6
2019-01-04T15:58:49.859Z,23.9
2019-01-04T16:00:49.896Z,21.7
2019-01-04T16:02:49.863Z,23.6
2019-01-04T16:04:50.257Z,22.9
2019-01-04T16:06:49.445Z,22.9
2019-01-04T16:08:50.410Z,22.9
2019-01-04T16:10:49.528Z,22.9
2019-01-04T16:12:49.541Z,23.7
2019-01-04T16:14:49.600Z,23.9
2019-01-04T16:16:49.873Z,23.7
2019-01-04T16:18:49.906Z,23.0
2019-01-04T16:20:49.899Z,23.0
2019-01-04T16:22:49.959Z,25.9
2019-01-04T16:24:49.935Z,24.8
2019-01-04T16:26:50.011Z,23.5
2019-01-04T16:28:50.035Z,23.5
2019-01-04T16:30:50.018Z,25.0
2019-01-04T16:32:50.036Z,25.7
2019-01-04T16:34:50.320Z,25.7
2019-01-04T16:36:49.567Z,28.0
2019-01-04T16:38:49.621Z,28.0
2019-01-04T16:40:49.733Z,26.6
2019-01-04T16:42:49.788Z,27.9
2019-01-04T16:44:49.793Z,25.5
2019-01-04T16:46:49.903Z,25.5
2019-01-04T16:48:49.988Z,30.6
2019-01-04T16:50:50.001Z,27.9
2019-01-04T16:52:50.042Z,28.3
2019-01-04T16:54:50.026Z,27.9
2019-01-04T16:56:50.315Z,27.1
2019-01-04T16:58:50.398Z,27.1
2019-01-04T17:00:49.459Z,31.9
2019-01-04T17:02:49.610Z,28.9
2019-01-04T17:04:50.025Z,28.9
2019-01-04T17:06:50.252Z,27.7
2019-01-04T17:08:50.283Z,29.5
2019-01-04T17:10:50.272Z,28.7
2019-01-04T17:12:50.356Z,26.4
2019-01-04T17:14:50.432Z,28.6
2019-01-04T17:16:49.712Z,28.6
2019-01-04T17:18:49.759Z,29.9
2019-01-04T17:20:49.815Z,27.8
2019-01-04T17:22:49.823Z,28.5
2019-01-04T17:24:49.858Z,29.6
2019-01-04T17:26:50.098Z,29.6
2019-01-04T17:28:50.120Z,27.7
2019-01-04T17:30:50.200Z,30.6
2019-01-04T17:32:50.244Z,30.2
2019-01-04T17:34:49.517Z,28.4
2019-01-04T17:36:49.813Z,28.4
2019-01-04T17:38:49.884Z,29.7
2019-01-04T17:40:49.985Z,31.5
2019-01-04T17:42:49.993Z,31.3
2019-01-04T17:44:50.007Z,31.3
2019-01-04T17:46:50.273Z,33.6
2019-01-04T17:48:50.395Z,31.0
2019-01-04T17:50:50.428Z,31.7
2019-01-04T17:52:49.477Z,31.7
2019-01-04T17:54:49.510Z,29.5
2019-01-04T17:56:49.779Z,31.9
2019-01-04T17:58:49.752Z,33.3
2019-01-04T18:00:49.733Z,31.1
2019-01-04T18:02:49.782Z,29.7
2019-01-04T18:04:50.291Z,29.7
2019-01-04T18:06:49.538Z,29.3
2019-01-04T18:08:49.724Z,33.5
2019-01-04T18:10:49.751Z,29.9
2019-01-04T18:12:49.716Z,29.3
2019-01-04T18:14:49.746Z,29.3
2019-01-04T18:16:50.064Z,27.0
2019-01-04T18:18:50.168Z,30.0
2019-01-04T18:20:50.194Z,30.0
2019-01-04T18:22:50.227Z,28.9
2019-01-04T18:24:50.319Z,28.9
2019-01-04T18:26:49.838Z,28.5
2019-01-04T18:28:49.799Z,28.7
2019-01-04T18:30:49.909Z,28.7
2019-01-04T18:32:49.918Z,29.6
2019-01-04T18:34:50.404Z,26.9
2019-01-04T18:36:49.685Z,26.9
2019-01-04T18:38:49.745Z,28.6
2019-01-04T18:40:49.828Z,28.6
2019-01-04T18:42:49.865Z,28.6
2019-01-04T18:44:49.873Z,28.6
2019-01-04T18:46:50.061Z,24.3
2019-01-04T18:48:50.030Z,26.3
2019-01-04T18:50:50.078Z,26.3
2019-01-04T18:52:50.084Z,26.0
2019-01-04T18:54:50.056Z,27.7
2019-01-04T18:56:50.229Z,27.0
2019-01-04T18:58:50.270Z,25.0
2019-01-04T19:00:50.278Z,26.0
2019-01-04T19:02:50.393Z,26.0
2019-01-04T19:04:49.752Z,25.5
2019-01-04T19:06:49.931Z,26.6
2019-01-04T19:08:50.000Z,25.2
2019-01-04T19:10:49.981Z,25.2
2019-01-04T19:12:50.065Z,26.2
2019-01-04T19:14:50.055Z,23.1
2019-01-04T19:16:50.377Z,23.1
2019-01-04T19:18:49.455Z,24.5
2019-01-04T19:20:49.490Z,23.6
2019-01-04T19:22:49.711Z,23.6
2019-01-04T19:24:49.801Z,28.6
2019-01-04T19:26:50.074Z,24.6
2019-01-04T19:28:50.106Z,24.6
2019-01-04T19:30:50.110Z,25.0
2019-01-04T19:32:50.158Z,25.0
2019-01-04T19:34:49.608Z,26.4
2019-01-04T19:36:49.769Z,25.0
2019-01-04T19:38:49.768Z,28.6
2019-01-04T19:40:49.794Z,28.6
2019-01-04T19:42:49.782Z,25.9
2019-01-04T19:44:49.866Z,26.7
2019-01-04T19:46:50.195Z,26.8
2019-01-04T19:48:50.203Z,26.5
2019-01-04T19:50:50.235Z,26.5
2019-01-04T19:52:50.375Z,25.8
2019-01-04T19:54:50.371Z,26.8
2019-01-04T19:56:49.711Z,26.8
2019-01-04T19:58:49.756Z,26.8
2019-01-04T20:00:49.768Z,25.0
2019-01-04T20:02:49.833Z,25.4
2019-01-04T20:04:50.155Z,26.5
2019-01-04T20:06:49.489Z,26.1
2019-01-04T20:08:49.533Z,26.1
2019-01-04T20:10:49.700Z,30.6
2019-01-04T20:12:49.673Z,25.3
2019-01-04T20:14:49.506Z,26.9
2019-01-04T20:16:49.878Z,26.9
2019-01-04T20:18:49.705Z,25.6
2019-01-04T20:20:49.716Z,26.4
2019-01-04T20:22:49.949Z,26.4
2019-01-04T20:24:49.751Z,27.1
2019-01-04T20:26:49.907Z,27.1
2019-01-04T20:28:50.061Z,24.1
2019-01-04T20:30:50.192Z,24.1
2019-01-04T20:32:50.188Z,23.2
2019-01-04T20:34:49.540Z,23.2
2019-01-04T20:36:49.869Z,23.1
2019-01-04T20:38:49.981Z,23.1
2019-01-04T20:40:49.711Z,24.0
2019-01-04T20:42:50.432Z,24.4
2019-01-04T20:44:50.128Z,22.1
2019-01-04T20:46:50.237Z,22.1
2019-01-04T20:48:50.319Z,24.1
2019-01-04T20:50:50.017Z,25.1
2019-01-04T20:52:50.019Z,22.5
2019-01-04T20:54:49.673Z,22.5
2019-01-04T20:56:49.912Z,24.6
2019-01-04T20:58:50.171Z,24.6
2019-01-04T21:00:50.128Z,23.4
2019-01-04T21:02:50.136Z,24.7
2019-01-04T21:04:49.645Z,24.8
2019-01-04T21:06:49.674Z,22.9
2019-01-04T21:08:49.795Z,22.9
2019-01-04T21:10:49.797Z,24.7
2019-01-04T21:12:49.693Z,24.7
2019-01-04T21:14:49.799Z,25.1
2019-01-04T21:16:49.989Z,25.1
2019-01-04T21:18:49.811Z,29.7
2019-01-04T21:20:49.857Z,24.9
2019-01-04T21:22:49.511Z,24.3
2019-01-04T21:24:50.429Z,24.3
2019-01-04T21:26:49.692Z,24.5
2019-01-04T21:28:49.674Z,23.0
2019-01-04T21:30:49.660Z,23.0
2019-01-04T21:32:49.726Z,23.5
2019-01-04T21:34:49.717Z,26.2
2019-01-04T21:36:50.370Z,26.2
2019-01-04T21:38:49.493Z,24.1
2019-01-04T21:40:49.561Z,25.1
2019-01-04T21:42:49.713Z,25.1
2019-01-04T21:44:49.699Z,24.2
2019-01-04T21:46:49.865Z,23.8
2019-01-04T21:48:49.855Z,25.2
2019-01-04T21:50:49.805Z,24.3
2019-01-04T21:52:49.667Z,24.3
2019-01-04T21:54:49.642Z,25.0
2019-01-04T21:56:50.127Z,25.0
2019-01-04T21:58:50.190Z,25.6
2019-01-04T22:00:50.196Z,24.2
2019-01-04T22:02:50.221Z,24.2
2019-01-04T22:04:49.594Z,24.8
2019-01-04T22:06:50.284Z,25.6
2019-01-04T22:08:49.929Z,24.5
2019-01-04T22:10:49.900Z,24.2
2019-01-04T22:12:49.552Z,24.2
2019-01-04T22:14:49.607Z,24.6
2019-01-04T22:16:49.920Z,23.6
2019-01-04T22:18:49.924Z,22.7
2019-01-04T22:20:49.925Z,25.2
2019-01-04T22:22:49.969Z,25.2
2019-01-04T22:24:49.654Z,25.2
2019-01-04T22:26:49.857Z,24.4
2019-01-04T22:28:49.878Z,24.0
2019-01-04T22:30:49.919Z,24.0
2019-01-04T22:32:49.581Z,25.6
2019-01-04T22:34:50.077Z,25.6
2019-01-04T22:36:50.401Z,27.0
2019-01-04T22:38:50.384Z,26.0
2019-01-04T22:40:49.481Z,26.0
2019-01-04T22:42:49.531Z,27.3
2019-01-04T22:44:49.584Z,27.0
2019-01-04T22:46:49.852Z,25.6
2019-01-04T22:48:49.893Z,25.6
2019-01-04T22:50:49.926Z,27.0
2019-01-04T22:52:49.972Z,25.6
2019-01-04T22:54:49.956Z,26.7
2019-01-04T22:56:50.172Z,26.3
2019-01-04T22:58:49.812Z,26.3
2019-01-04T23:00:49.791Z,26.7
2019-01-04T23:02:49.876Z,27.6
2019-01-04T23:04:49.540Z,27.7
2019-01-04T23:06:49.814Z,25.3
2019-01-04T23:08:49.891Z,25.3
2019-01-04T23:10:50.003Z,27.2
2019-01-04T23:12:49.800Z,27.2
2019-01-04T23:14:49.852Z,27.7
2019-01-04T23:16:50.129Z,27.1
2019-01-04T23:18:50.225Z,24.0
2019-01-04T23:20:50.220Z,25.7
2019-01-04T23:22:50.363Z,25.7
2019-01-04T23:24:50.333Z,26.1
2019-01-04T23:26:49.469Z,24.8
2019-01-04T23:28:50.160Z,24.8
2019-01-04T23:30:49.848Z,23.8
2019-01-04T23:32:49.972Z,23.8
2019-01-04T23:34:49.945Z,25.5
2019-01-04T23:36:50.205Z,24.5
2019-01-04T23:38:50.236Z,25.1
2019-01-04T23:40:50.264Z,23.9
2019-01-04T23:42:49.969Z,23.9
2019-01-04T23:44:50.000Z,23.4
2019-01-04T23:46:49.679Z,24.1
2019-01-04T23:48:49.734Z,24.1
2019-01-04T23:50:49.818Z,23.5
2019-01-04T23:52:49.798Z,22.7
2019-01-04T23:54:49.954Z,22.8
2019-01-04T23:56:49.880Z,22.8
2019-01-04T23:58:49.833Z,23.4
